sensor_id;sensor_type;location;lat;lon;timestamp;pressure;altitude;pressure_sealevel;temperature;humidity
59686;BME280;45554;51.096;16.976;2024-03-07T00:03:04;100975.03;;;3.49;85.75
59686;BME280;45554;51.096;16.976;2024-03-07T00:06:26;100979.03;;;3.48;85.77
59686;BME280;45554;51.096;16.976;2024-03-07T00:10:13;100983.09;;;3.43;85.76
59686;BME280;45554;51.096;16.976;2024-03-07T00:14:02;100981.22;;;3.41;85.81
59686;BME280;45554;51.096;16.976;2024-03-07T00:21:03;100981.30;;;3.36;85.83
59686;BME280;45554;51.096;16.976;2024-03-07T00:24:47;100983.28;;;3.29;85.63
59686;BME280;45554;51.096;16.976;2024-03-07T00:28:23;100983.32;;;3.26;85.84
59686;BME280;45554;51.096;16.976;2024-03-07T00:32:30;100978.67;;;3.24;86.09
59686;BME280;45554;51.096;16.976;2024-03-07T00:36:05;100975.27;;;3.21;85.79
59686;BME280;45554;51.096;16.976;2024-03-07T00:39:19;100976.64;;;3.21;85.82
59686;BME280;45554;51.096;16.976;2024-03-07T00:43:03;100974.80;;;3.16;85.71
59686;BME280;45554;51.096;16.976;2024-03-07T00:46:51;100971.88;;;3.14;85.88
59686;BME280;45554;51.096;16.976;2024-03-07T00:50:27;100968.30;;;3.10;85.74
59686;BME280;45554;51.096;16.976;2024-03-07T00:53:56;100970.73;;;3.09;85.71
59686;BME280;45554;51.096;16.976;2024-03-07T00:57:29;100969.05;;;3.05;85.75
59686;BME280;45554;51.096;16.976;2024-03-07T01:01:04;100963.18;;;3.02;85.85
59686;BME280;45554;51.096;16.976;2024-03-07T01:04:06;100968.73;;;3.03;85.73
59686;BME280;45554;51.096;16.976;2024-03-07T01:07:33;100964.75;;;3.02;85.75
59686;BME280;45554;51.096;16.976;2024-03-07T01:11:09;100968.58;;;3.02;85.67
59686;BME280;45554;51.096;16.976;2024-03-07T01:14:30;100959.77;;;2.99;85.64
59686;BME280;45554;51.096;16.976;2024-03-07T01:17:57;100966.15;;;3.02;85.52
59686;BME280;45554;51.096;16.976;2024-03-07T01:21:31;100964.25;;;3.01;85.56
59686;BME280;45554;51.096;16.976;2024-03-07T01:24:46;100958.92;;;2.97;85.43
59686;BME280;45554;51.096;16.976;2024-03-07T01:28:35;100960.52;;;2.95;85.34
59686;BME280;45554;51.096;16.976;2024-03-07T01:32:11;100971.40;;;2.97;85.17
59686;BME280;45554;51.096;16.976;2024-03-07T01:35:42;100972.83;;;2.94;85.12
59686;BME280;45554;51.096;16.976;2024-03-07T01:38:54;100972.67;;;2.92;85.07
59686;BME280;45554;51.096;16.976;2024-03-07T01:42:04;100967.36;;;2.88;85.17
59686;BME280;45554;51.096;16.976;2024-03-07T01:45:43;100969.92;;;2.91;85.02
59686;BME280;45554;51.096;16.976;2024-03-07T01:49:16;100961.02;;;2.82;84.80
59686;BME280;45554;51.096;16.976;2024-03-07T01:52:48;100949.49;;;2.77;84.80
59686;BME280;45554;51.096;16.976;2024-03-07T01:56:17;100973.73;;;2.91;84.59
59686;BME280;45554;51.096;16.976;2024-03-07T01:59:51;100974.92;;;2.91;84.34
59686;BME280;45554;51.096;16.976;2024-03-07T02:03:27;100976.64;;;2.92;84.37
59686;BME280;45554;51.096;16.976;2024-03-07T02:06:52;100974.05;;;2.92;84.32
59686;BME280;45554;51.096;16.976;2024-03-07T02:10:47;100967.48;;;2.91;84.10
59686;BME280;45554;51.096;16.976;2024-03-07T02:14:31;100967.69;;;2.89;83.89
59686;BME280;45554;51.096;16.976;2024-03-07T02:18:10;100963.24;;;2.84;83.88
59686;BME280;45554;51.096;16.976;2024-03-07T02:21:17;100963.11;;;2.80;83.75
59686;BME280;45554;51.096;16.976;2024-03-07T02:24:47;100966.03;;;2.83;83.56
59686;BME280;45554;51.096;16.976;2024-03-07T02:36:19;100972.96;;;2.83;83.60
59686;BME280;45554;51.096;16.976;2024-03-07T02:39:48;100967.66;;;2.76;83.23
59686;BME280;45554;51.096;16.976;2024-03-07T02:47:37;100975.67;;;2.72;83.23
59686;BME280;45554;51.096;16.976;2024-03-07T02:50:57;100974.80;;;2.71;83.19
59686;BME280;45554;51.096;16.976;2024-03-07T02:58:48;100975.36;;;2.69;83.31
59686;BME280;45554;51.096;16.976;2024-03-07T03:06:00;100975.03;;;2.67;83.29
59686;BME280;45554;51.096;16.976;2024-03-07T03:14:05;100976.07;;;2.67;83.27
59686;BME280;45554;51.096;16.976;2024-03-07T03:17:47;100974.70;;;2.65;83.09
59686;BME280;45554;51.096;16.976;2024-03-07T03:21:31;100979.05;;;2.63;83.00
59686;BME280;45554;51.096;16.976;2024-03-07T03:29:44;100981.22;;;2.55;82.97
59686;BME280;45554;51.096;16.976;2024-03-07T03:40:26;100979.79;;;2.43;82.73
59686;BME280;45554;51.096;16.976;2024-03-07T03:43:53;100972.29;;;2.32;82.85
59686;BME280;45554;51.096;16.976;2024-03-07T03:47:54;100981.80;;;2.32;82.93
59686;BME280;45554;51.096;16.976;2024-03-07T03:51:54;100979.58;;;2.28;82.74
59686;BME280;45554;51.096;16.976;2024-03-07T03:55:04;100978.63;;;2.20;82.75
59686;BME280;45554;51.096;16.976;2024-03-07T03:58:42;100975.26;;;2.09;82.97
59686;BME280;45554;51.096;16.976;2024-03-07T04:02:42;100976.33;;;2.04;82.79
59686;BME280;45554;51.096;16.976;2024-03-07T04:06:21;100978.96;;;2.00;83.09
59686;BME280;45554;51.096;16.976;2024-03-07T04:09:37;100976.09;;;1.92;83.30
59686;BME280;45554;51.096;16.976;2024-03-07T04:13:10;100980.06;;;1.92;83.18
59686;BME280;45554;51.096;16.976;2024-03-07T04:16:52;100981.48;;;1.88;83.23
59686;BME280;45554;51.096;16.976;2024-03-07T04:20:02;100978.04;;;1.85;83.45
59686;BME280;45554;51.096;16.976;2024-03-07T04:23:50;100990.00;;;1.82;83.26
59686;BME280;45554;51.096;16.976;2024-03-07T04:27:25;100978.13;;;1.74;83.52
59686;BME280;45554;51.096;16.976;2024-03-07T04:35:02;100990.86;;;1.83;83.89
59686;BME280;45554;51.096;16.976;2024-03-07T04:38:43;100996.02;;;1.85;83.81
59686;BME280;45554;51.096;16.976;2024-03-07T04:42:11;100995.48;;;1.88;83.91
59686;BME280;45554;51.096;16.976;2024-03-07T04:46:17;100993.20;;;1.93;83.94
59686;BME280;45554;51.096;16.976;2024-03-07T04:54:59;100998.16;;;2.00;84.15
59686;BME280;45554;51.096;16.976;2024-03-07T04:58:58;101002.23;;;2.08;83.95
59686;BME280;45554;51.096;16.976;2024-03-07T05:10:19;101005.77;;;2.21;83.66
59686;BME280;45554;51.096;16.976;2024-03-07T05:13:48;101014.19;;;2.26;83.61
59686;BME280;45554;51.096;16.976;2024-03-07T05:17:09;101013.81;;;2.29;83.57
59686;BME280;45554;51.096;16.976;2024-03-07T05:20:35;101014.16;;;2.30;83.30
59686;BME280;45554;51.096;16.976;2024-03-07T05:24:39;101019.52;;;2.31;83.27
59686;BME280;45554;51.096;16.976;2024-03-07T05:40:05;101028.62;;;2.39;83.18
59686;BME280;45554;51.096;16.976;2024-03-07T05:43:14;101030.50;;;2.41;83.07
59686;BME280;45554;51.096;16.976;2024-03-07T05:46:58;101037.38;;;2.46;82.96
59686;BME280;45554;51.096;16.976;2024-03-07T05:50:33;101034.22;;;2.50;82.81
59686;BME280;45554;51.096;16.976;2024-03-07T05:58:39;101039.36;;;2.55;82.18
59686;BME280;45554;51.096;16.976;2024-03-07T06:02:10;101040.55;;;2.58;82.03
59686;BME280;45554;51.096;16.976;2024-03-07T06:05:41;101040.52;;;2.61;81.89
59686;BME280;45554;51.096;16.976;2024-03-07T06:09:06;101043.06;;;2.67;81.67
59686;BME280;45554;51.096;16.976;2024-03-07T06:12:19;101044.06;;;2.70;81.46
59686;BME280;45554;51.096;16.976;2024-03-07T06:15:57;101048.84;;;2.78;81.09
59686;BME280;45554;51.096;16.976;2024-03-07T06:19:31;101046.36;;;2.83;80.58
59686;BME280;45554;51.096;16.976;2024-03-07T06:23:25;101049.27;;;2.85;80.00
59686;BME280;45554;51.096;16.976;2024-03-07T06:27:18;101055.26;;;2.94;79.47
59686;BME280;45554;51.096;16.976;2024-03-07T06:30:51;101059.86;;;3.00;78.69
59686;BME280;45554;51.096;16.976;2024-03-07T06:34:16;101055.16;;;3.01;78.12
59686;BME280;45554;51.096;16.976;2024-03-07T06:37:39;101059.09;;;3.07;77.67
59686;BME280;45554;51.096;16.976;2024-03-07T06:41:17;101072.81;;;3.18;77.00
59686;BME280;45554;51.096;16.976;2024-03-07T06:45:31;101074.46;;;3.25;76.65
59686;BME280;45554;51.096;16.976;2024-03-07T06:49:18;101078.02;;;3.33;75.97
59686;BME280;45554;51.096;16.976;2024-03-07T06:52:55;101076.54;;;3.39;75.79
59686;BME280;45554;51.096;16.976;2024-03-07T06:56:48;101068.39;;;3.40;75.37
59686;BME280;45554;51.096;16.976;2024-03-07T07:00:38;101082.77;;;3.54;74.88
59686;BME280;45554;51.096;16.976;2024-03-07T07:04:01;101086.88;;;3.58;74.54
59686;BME280;45554;51.096;16.976;2024-03-07T07:08:18;101086.66;;;3.62;74.25
59686;BME280;45554;51.096;16.976;2024-03-07T07:12:29;101082.90;;;3.71;73.67
59686;BME280;45554;51.096;16.976;2024-03-07T07:21:15;101084.19;;;3.78;72.67
59686;BME280;45554;51.096;16.976;2024-03-07T07:25:43;101083.30;;;3.80;72.38
59686;BME280;45554;51.096;16.976;2024-03-07T07:30:22;101083.93;;;3.84;72.12
59686;BME280;45554;51.096;16.976;2024-03-07T07:38:00;101077.77;;;4.01;71.77
59686;BME280;45554;51.096;16.976;2024-03-07T07:42:29;101077.71;;;4.17;71.65
59686;BME280;45554;51.096;16.976;2024-03-07T07:47:22;101084.42;;;4.33;70.92
59686;BME280;45554;51.096;16.976;2024-03-07T07:51:50;101085.52;;;4.40;70.42
59686;BME280;45554;51.096;16.976;2024-03-07T08:09:37;101086.22;;;4.49;68.35
59686;BME280;45554;51.096;16.976;2024-03-07T08:18:46;101062.48;;;4.48;67.56
59686;BME280;45554;51.096;16.976;2024-03-07T08:23:14;101076.82;;;4.62;67.16
59686;BME280;45554;51.096;16.976;2024-03-07T08:27:49;101094.59;;;4.78;66.39
59686;BME280;45554;51.096;16.976;2024-03-07T08:32:20;101089.02;;;4.98;66.06
59686;BME280;45554;51.096;16.976;2024-03-07T08:37:13;101087.33;;;5.04;64.73
59686;BME280;45554;51.096;16.976;2024-03-07T09:14:26;101087.15;;;5.23;60.30
59686;BME280;45554;51.096;16.976;2024-03-07T15:46:07;100984.08;;;5.71;55.54
59686;BME280;45554;51.096;16.976;2024-03-07T19:53:56;101011.12;;;4.36;61.10
59686;BME280;45554;51.096;16.976;2024-03-07T20:01:34;101001.40;;;4.36;60.98
59686;BME280;45554;51.096;16.976;2024-03-07T20:04:38;100998.01;;;4.32;61.06
59686;BME280;45554;51.096;16.976;2024-03-07T20:08:11;101003.67;;;4.34;61.22
59686;BME280;45554;51.096;16.976;2024-03-07T20:15:37;101002.16;;;4.32;61.13
59686;BME280;45554;51.096;16.976;2024-03-07T20:18:31;101003.30;;;4.37;61.42
59686;BME280;45554;51.096;16.976;2024-03-07T20:21:45;101005.18;;;4.38;60.86
59686;BME280;45554;51.096;16.976;2024-03-07T20:29:30;100998.58;;;4.39;61.14
59686;BME280;45554;51.096;16.976;2024-03-07T20:33:19;101002.56;;;4.39;61.18
59686;BME280;45554;51.096;16.976;2024-03-07T20:37:15;100998.41;;;4.38;61.17
59686;BME280;45554;51.096;16.976;2024-03-07T20:40:58;100991.16;;;4.36;61.23
59686;BME280;45554;51.096;16.976;2024-03-07T20:46:49;100983.95;;;4.32;61.33
59686;BME280;45554;51.096;16.976;2024-03-07T20:50:03;100987.02;;;4.36;61.31
59686;BME280;45554;51.096;16.976;2024-03-07T20:53:28;100989.63;;;4.34;61.15
59686;BME280;45554;51.096;16.976;2024-03-07T20:56:42;100991.25;;;4.32;61.27
59686;BME280;45554;51.096;16.976;2024-03-07T21:00:08;100990.61;;;4.28;61.28
59686;BME280;45554;51.096;16.976;2024-03-07T21:03:17;100980.98;;;4.22;61.05
59686;BME280;45554;51.096;16.976;2024-03-07T21:06:21;100991.02;;;4.24;61.21
59686;BME280;45554;51.096;16.976;2024-03-07T21:09:48;100985.90;;;4.19;61.41
59686;BME280;45554;51.096;16.976;2024-03-07T21:12:50;100985.42;;;4.17;61.51
59686;BME280;45554;51.096;16.976;2024-03-07T21:15:52;100974.13;;;4.08;61.43
59686;BME280;45554;51.096;16.976;2024-03-07T21:19:22;100984.52;;;4.08;61.48
59686;BME280;45554;51.096;16.976;2024-03-07T21:22:35;100986.20;;;4.01;61.34
59686;BME280;45554;51.096;16.976;2024-03-07T21:25:34;100965.68;;;3.83;61.38
59686;BME280;45554;51.096;16.976;2024-03-07T21:29:27;100978.49;;;3.84;61.71
59686;BME280;45554;51.096;16.976;2024-03-07T21:33:02;100984.86;;;3.76;61.66
59686;BME280;45554;51.096;16.976;2024-03-07T21:53:45;100974.33;;;3.26;62.68
59686;BME280;45554;51.096;16.976;2024-03-07T21:57:05;100979.09;;;3.20;62.95
59686;BME280;45554;51.096;16.976;2024-03-07T22:00:28;100978.69;;;3.10;62.97
59686;BME280;45554;51.096;16.976;2024-03-07T22:03:43;100975.83;;;3.04;63.22
59686;BME280;45554;51.096;16.976;2024-03-07T22:17:02;100966.22;;;2.66;63.88
59686;BME280;45554;51.096;16.976;2024-03-07T22:21:03;100962.83;;;2.60;63.85
59686;BME280;45554;51.096;16.976;2024-03-07T22:25:26;100958.16;;;2.43;64.26
59686;BME280;45554;51.096;16.976;2024-03-07T22:33:17;100949.87;;;2.24;64.61
59686;BME280;45554;51.096;16.976;2024-03-07T22:37:52;100967.86;;;2.24;64.68
59686;BME280;45554;51.096;16.976;2024-03-07T22:40:59;100963.59;;;2.17;64.93
59686;BME280;45554;51.096;16.976;2024-03-07T22:44:16;100959.00;;;2.10;65.02
59686;BME280;45554;51.096;16.976;2024-03-07T22:56:41;100960.83;;;1.98;65.44
59686;BME280;45554;51.096;16.976;2024-03-07T23:00:12;100958.27;;;1.94;65.64
59686;BME280;45554;51.096;16.976;2024-03-07T23:17:12;100955.84;;;1.74;66.35
59686;BME280;45554;51.096;16.976;2024-03-07T23:33:26;100950.61;;;1.55;67.24
59686;BME280;45554;51.096;16.976;2024-03-07T23:46:52;100947.23;;;1.45;67.85
59686;BME280;45554;51.096;16.976;2024-03-07T23:55:29;100943.30;;;1.35;68.10
